MSC Barbara — HODU — position and weather

sailwx.info

Track history (hours):
 
Tides and Currents Weather Stations Pressure Air Temp Water Temp Dewpoint Dewpoint Depression Visibility Wind Speed Wind Dir Waves Ship Positions

MSC Barbara

Last reported at 2015-Aug-30 11:33 UTC. Time now 2015-Aug-30 11:55 UTC.
Position N 32°05' W 080°59'.

Length 304 m; draft 11.8 m.

Type: Ship. MMSI: 353775000.

Date/timePositionNaut miles runAvg speedWind from/ knotsBaromVisibWave heightAir tempDewpointWater temp
2015-Aug-30 11:33N 32°05' W 080°59'1111.3
2015-Aug-30 10:33N 32°00' W 080°47'9 9.3
2015-Aug-30 09:33N 31°57' W 080°37'425 9.8
2015-Aug-28 14:14N 38°02' W 076°13'1518.4
2015-Aug-28 13:26N 38°16' W 076°17'1618.2
2015-Aug-28 12:33N 38°31' W 076°25'1818.3
2015-Aug-28 11:33N 38°49' W 076°25'1616.5
2015-Aug-28 10:33N 39°06' W 076°24'1010.1
2015-Aug-28 09:33N 39°13' W 076°32'2 1.7
2015-Aug-28 08:31N 39°15' W 076°33'0 0.0
2015-Aug-28 07:07N 39°15' W 076°33'0 0.0
2015-Aug-28 06:09N 39°15' W 076°33'0 0.0
2015-Aug-28 05:33N 39°15' W 076°33'0 0.0
2015-Aug-28 04:33N 39°15' W 076°33'0 0.0
2015-Aug-28 03:32N 39°15' W 076°33'0 0.0
2015-Aug-28 02:32N 39°15' W 076°33'0 0.0
2015-Aug-28 01:31N 39°15' W 076°33'0 0.0
2015-Aug-27 23:09N 39°15' W 076°33'0 0.0
2015-Aug-27 22:30N 39°15' W 076°33'0 0.0
2015-Aug-27 21:33N 39°15' W 076°33'0 0.0
2015-Aug-27 20:32N 39°15' W 076°33'0 0.0
2015-Aug-27 19:17N 39°15' W 076°33'0 0.0
2015-Aug-27 18:32N 39°15' W 076°33'0 0.0
2015-Aug-27 17:33N 39°15' W 076°33'0 0.0
2015-Aug-27 16:32N 39°15' W 076°33'0 0.0
2015-Aug-27 15:23N 39°15' W 076°33'1 1.6
2015-Aug-27 14:33N 39°14' W 076°33'9 9.4
2015-Aug-27 13:33N 39°07' W 076°24'1413.6
2015-Aug-27 12:33N 38°54' W 076°24'3716.9
2015-Aug-27 10:21N 38°17' W 076°17'1717.5
2015-Aug-27 09:24N 38°01' W 076°12'128 8.6
2015-Aug-26 18:34N 39°15' W 073°59'2217.3
2015-Aug-26 17:17N 39°37' W 073°55'1317.4
2015-Aug-26 16:31N 39°50' W 073°52'1817.2
2015-Aug-26 15:28N 40°08' W 073°50'1617.2
2015-Aug-26 14:32N 40°24' W 073°49'1413.9
2015-Aug-26 13:33N 40°33' W 074°02'6 6.3
2015-Aug-26 12:33N 40°39' W 074°06'4 4.1
2015-Aug-26 11:33N 40°39' W 074°11'0 0.0
2015-Aug-26 10:30N 40°38' W 074°11'0 0.0
2015-Aug-26 09:32N 40°38' W 074°11'0 0.0
2015-Aug-26 08:32N 40°38' W 074°11'0 0.0
2015-Aug-26 07:32N 40°38' W 074°11'0 0.0
2015-Aug-26 06:31N 40°38' W 074°11'0 0.0
2015-Aug-26 05:28N 40°38' W 074°11'0 0.0
2015-Aug-26 04:33N 40°38' W 074°11'0 0.0
2015-Aug-26 03:27N 40°38' W 074°11'0 0.0
2015-Aug-26 02:32N 40°38' W 074°11'0 0.0
2015-Aug-26 01:32N 40°38' W 074°11'0 0.0
2015-Aug-26 00:32N 40°38' W 074°11'0 0.0
2015-Aug-25 23:31N 40°38' W 074°11'0 0.0
2015-Aug-25 22:31N 40°38' W 074°11'0 0.0
2015-Aug-25 21:33N 40°38' W 074°11'0 0.0
2015-Aug-25 20:33N 40°38' W 074°11'0 0.0
2015-Aug-25 19:23N 40°38' W 074°11'0 0.0
2015-Aug-25 18:29N 40°38' W 074°11'0 0.0
2015-Aug-25 17:29N 40°38' W 074°11'0 0.0
2015-Aug-25 16:31N 40°38' W 074°11'0 0.0
2015-Aug-25 15:31N 40°38' W 074°11'3 3.6
2015-Aug-25 14:33N 40°39' W 074°07'5 5.1
2015-Aug-25 13:33N 40°35' W 074°02'9 9.4
2015-Aug-25 12:33N 40°29' W 073°53'8 8.1
2015-Aug-25 11:32N 40°28' W 073°42'2 2.2
2015-Aug-25 10:33N 40°28' W 073°40'1 0.9
2015-Aug-25 09:32N 40°29' W 073°39'0 0.0
2015-Aug-25 08:31N 40°29' W 073°39'0 0.0
2015-Aug-25 07:31N 40°29' W 073°39'0 0.0
2015-Aug-25 06:33N 40°29' W 073°39'0 0.0
2015-Aug-25 05:33N 40°29' W 073°39'0 0.0
2015-Aug-25 04:33N 40°29' W 073°39'0 0.0
2015-Aug-25 03:32N 40°29' W 073°39'0 0.0
2015-Aug-25 02:32N 40°29' W 073°39'0 0.0
2015-Aug-25 01:28N 40°29' W 073°39'0 0.0
2015-Aug-25 00:31N 40°29' W 073°39'0 0.0
2015-Aug-24 23:33N 40°29' W 073°39'0 0.0
2015-Aug-24 22:33N 40°29' W 073°39'0 0.0
2015-Aug-24 21:33N 40°29' W 073°39'0 0.0
2015-Aug-24 20:32N 40°29' W 073°39'0 0.0
2015-Aug-24 19:29N 40°29' W 073°39'0 0.0
2015-Aug-24 18:22N 40°29' W 073°39'0 0.0
2015-Aug-24 17:31N 40°29' W 073°39'0 0.0
2015-Aug-24 15:33N 40°29' W 073°39'0 0.0
2015-Aug-24 13:32N 40°29' W 073°39'0 0.0
2015-Aug-24 11:28N 40°29' W 073°39'0 0.0
2015-Aug-24 10:28N 40°29' W 073°39'0 0.0
2015-Aug-24 06:08N 40°29' W 073°39'0 0.0
2015-Aug-24 05:29N 40°29' W 073°39'0 0.0
2015-Aug-24 04:28N 40°29' W 073°39'0 0.0
2015-Aug-24 03:22N 40°29' W 073°39'0 0.0
2015-Aug-24 02:33N 40°29' W 073°39'0 0.0
2015-Aug-24 01:33N 40°29' W 073°39'0 0.0
2015-Aug-24 00:17N 40°29' W 073°39'0 0.0
2015-Aug-23 23:17N 40°29' W 073°39'0 0.0
2015-Aug-23 22:29N 40°29' W 073°39'2 1.6
2015-Aug-23 21:28N 40°29' W 073°41'910.1
2015-Aug-23 20:33N 40°20' W 073°46'1515.6
2015-Aug-23 19:33N 40°05' W 073°45'1717.0
2015-Aug-23 18:33N 39°48' W 073°42'1716.4
2015-Aug-23 17:33N 39°32' W 073°48'1916.7
2015-Aug-23 16:25N 39°14' W 073°57'4616.2
2015-Aug-23 13:33N 38°33' W 074°25'1615.8
2015-Aug-23 12:33N 38°20' W 074°35'1615.9
2015-Aug-23 11:33N 38°06' W 074°45'1615.7
2015-Aug-23 10:33N 37°52' W 074°55'1615.9
2015-Aug-23 09:33N 37°38' W 075°04'1616.1
2015-Aug-23 08:33N 37°24' W 075°14'  
Track history (hours):
 
Tides and Currents Weather Stations Pressure Air Temp Water Temp Dewpoint Dewpoint Depression Visibility Wind Speed Wind Dir Waves Ship Positions

MSC Barbara

Last reported at 2015-Aug-30 11:33 UTC. Time now 2015-Aug-30 11:55 UTC.
Position N 32°05' W 080°59'.

Length 304 m; draft 11.8 m.

Type: Ship. MMSI: 353775000.

Date/timePositionNaut miles runAvg speedWind from/ knotsBaromVisibWave heightAir tempDewpointWater temp
2015-Aug-30 11:33N 32°05' W 080°59'1111.3
2015-Aug-30 10:33N 32°00' W 080°47'9 9.3
2015-Aug-30 09:33N 31°57' W 080°37'425 9.8
2015-Aug-28 14:14N 38°02' W 076°13'1518.4
2015-Aug-28 13:26N 38°16' W 076°17'1618.2
2015-Aug-28 12:33N 38°31' W 076°25'1818.3
2015-Aug-28 11:33N 38°49' W 076°25'1616.5
2015-Aug-28 10:33N 39°06' W 076°24'1010.1
2015-Aug-28 09:33N 39°13' W 076°32'2 1.7
2015-Aug-28 08:31N 39°15' W 076°33'0 0.0
2015-Aug-28 07:07N 39°15' W 076°33'0 0.0
2015-Aug-28 06:09N 39°15' W 076°33'0 0.0
2015-Aug-28 05:33N 39°15' W 076°33'0 0.0
2015-Aug-28 04:33N 39°15' W 076°33'0 0.0
2015-Aug-28 03:32N 39°15' W 076°33'0 0.0
2015-Aug-28 02:32N 39°15' W 076°33'0 0.0
2015-Aug-28 01:31N 39°15' W 076°33'0 0.0
2015-Aug-27 23:09N 39°15' W 076°33'0 0.0
2015-Aug-27 22:30N 39°15' W 076°33'0 0.0
2015-Aug-27 21:33N 39°15' W 076°33'0 0.0
2015-Aug-27 20:32N 39°15' W 076°33'0 0.0
2015-Aug-27 19:17N 39°15' W 076°33'0 0.0
2015-Aug-27 18:32N 39°15' W 076°33'0 0.0
2015-Aug-27 17:33N 39°15' W 076°33'0 0.0
2015-Aug-27 16:32N 39°15' W 076°33'0 0.0
2015-Aug-27 15:23N 39°15' W 076°33'1 1.6
2015-Aug-27 14:33N 39°14' W 076°33'9 9.4
2015-Aug-27 13:33N 39°07' W 076°24'1413.6
2015-Aug-27 12:33N 38°54' W 076°24'3716.9
2015-Aug-27 10:21N 38°17' W 076°17'1717.5
2015-Aug-27 09:24N 38°01' W 076°12'128 8.6
2015-Aug-26 18:34N 39°15' W 073°59'2217.3
2015-Aug-26 17:17N 39°37' W 073°55'1317.4
2015-Aug-26 16:31N 39°50' W 073°52'1817.2
2015-Aug-26 15:28N 40°08' W 073°50'1617.2
2015-Aug-26 14:32N 40°24' W 073°49'1413.9
2015-Aug-26 13:33N 40°33' W 074°02'6 6.3
2015-Aug-26 12:33N 40°39' W 074°06'4 4.1
2015-Aug-26 11:33N 40°39' W 074°11'0 0.0
2015-Aug-26 10:30N 40°38' W 074°11'0 0.0
2015-Aug-26 09:32N 40°38' W 074°11'0 0.0
2015-Aug-26 08:32N 40°38' W 074°11'0 0.0
2015-Aug-26 07:32N 40°38' W 074°11'0 0.0
2015-Aug-26 06:31N 40°38' W 074°11'0 0.0
2015-Aug-26 05:28N 40°38' W 074°11'0 0.0
2015-Aug-26 04:33N 40°38' W 074°11'0 0.0
2015-Aug-26 03:27N 40°38' W 074°11'0 0.0
2015-Aug-26 02:32N 40°38' W 074°11'0 0.0
2015-Aug-26 01:32N 40°38' W 074°11'0 0.0
2015-Aug-26 00:32N 40°38' W 074°11'0 0.0
2015-Aug-25 23:31N 40°38' W 074°11'0 0.0
2015-Aug-25 22:31N 40°38' W 074°11'0 0.0
2015-Aug-25 21:33N 40°38' W 074°11'0 0.0
2015-Aug-25 20:33N 40°38' W 074°11'0 0.0
2015-Aug-25 19:23N 40°38' W 074°11'0 0.0
2015-Aug-25 18:29N 40°38' W 074°11'0 0.0
2015-Aug-25 17:29N 40°38' W 074°11'0 0.0
2015-Aug-25 16:31N 40°38' W 074°11'0 0.0
2015-Aug-25 15:31N 40°38' W 074°11'3 3.6
2015-Aug-25 14:33N 40°39' W 074°07'5 5.1
2015-Aug-25 13:33N 40°35' W 074°02'9 9.4
2015-Aug-25 12:33N 40°29' W 073°53'8 8.1
2015-Aug-25 11:32N 40°28' W 073°42'2 2.2
2015-Aug-25 10:33N 40°28' W 073°40'1 0.9
2015-Aug-25 09:32N 40°29' W 073°39'0 0.0
2015-Aug-25 08:31N 40°29' W 073°39'0 0.0
2015-Aug-25 07:31N 40°29' W 073°39'0 0.0
2015-Aug-25 06:33N 40°29' W 073°39'0 0.0
2015-Aug-25 05:33N 40°29' W 073°39'0 0.0
2015-Aug-25 04:33N 40°29' W 073°39'0 0.0
2015-Aug-25 03:32N 40°29' W 073°39'0 0.0
2015-Aug-25 02:32N 40°29' W 073°39'0 0.0
2015-Aug-25 01:28N 40°29' W 073°39'0 0.0
2015-Aug-25 00:31N 40°29' W 073°39'0 0.0
2015-Aug-24 23:33N 40°29' W 073°39'0 0.0
2015-Aug-24 22:33N 40°29' W 073°39'0 0.0
2015-Aug-24 21:33N 40°29' W 073°39'0 0.0
2015-Aug-24 20:32N 40°29' W 073°39'0 0.0
2015-Aug-24 19:29N 40°29' W 073°39'0 0.0
2015-Aug-24 18:22N 40°29' W 073°39'0 0.0
2015-Aug-24 17:31N 40°29' W 073°39'0 0.0
2015-Aug-24 15:33N 40°29' W 073°39'0 0.0
2015-Aug-24 13:32N 40°29' W 073°39'0 0.0
2015-Aug-24 11:28N 40°29' W 073°39'0 0.0
2015-Aug-24 10:28N 40°29' W 073°39'0 0.0
2015-Aug-24 06:08N 40°29' W 073°39'0 0.0
2015-Aug-24 05:29N 40°29' W 073°39'0 0.0
2015-Aug-24 04:28N 40°29' W 073°39'0 0.0
2015-Aug-24 03:22N 40°29' W 073°39'0 0.0
2015-Aug-24 02:33N 40°29' W 073°39'0 0.0
2015-Aug-24 01:33N 40°29' W 073°39'0 0.0
2015-Aug-24 00:17N 40°29' W 073°39'0 0.0
2015-Aug-23 23:17N 40°29' W 073°39'0 0.0
2015-Aug-23 22:29N 40°29' W 073°39'2 1.6
2015-Aug-23 21:28N 40°29' W 073°41'910.1
2015-Aug-23 20:33N 40°20' W 073°46'1515.6
2015-Aug-23 19:33N 40°05' W 073°45'1717.0
2015-Aug-23 18:33N 39°48' W 073°42'1716.4
2015-Aug-23 17:33N 39°32' W 073°48'1916.7
2015-Aug-23 16:25N 39°14' W 073°57'4616.2
2015-Aug-23 13:33N 38°33' W 074°25'1615.8
2015-Aug-23 12:33N 38°20' W 074°35'1615.9
2015-Aug-23 11:33N 38°06' W 074°45'1615.7
2015-Aug-23 10:33N 37°52' W 074°55'1615.9
2015-Aug-23 09:33N 37°38' W 075°04'1616.1
2015-Aug-23 08:33N 37°24' W 075°14'  

Dump ship's entire track history